sensor_id;sensor_type;location;lat;lon;timestamp;P1;durP1;ratioP1;P2;durP2;ratioP2
46216;SDS011;47258;59.424;13.482;2023-02-28T00:00:13;1.15;;;0.80;;
46216;SDS011;47258;59.424;13.482;2023-02-28T00:02:41;4.18;;;1.50;;
46216;SDS011;47258;59.424;13.482;2023-02-28T00:05:09;1.40;;;1.02;;
46216;SDS011;47258;59.424;13.482;2023-02-28T00:07:38;1.48;;;1.38;;
46216;SDS011;47258;59.424;13.482;2023-02-28T00:10:06;1.75;;;1.65;;
46216;SDS011;47258;59.424;13.482;2023-02-28T00:12:35;4.55;;;1.27;;
46216;SDS011;47258;59.424;13.482;2023-02-28T00:15:05;9.57;;;1.40;;
46216;SDS011;47258;59.424;13.482;2023-02-28T00:17:33;0.45;;;0.45;;
46216;SDS011;47258;59.424;13.482;2023-02-28T00:20:00;3.55;;;1.75;;
46216;SDS011;47258;59.424;13.482;2023-02-28T00:22:37;1.70;;;1.58;;
46216;SDS011;47258;59.424;13.482;2023-02-28T00:25:05;1.42;;;1.33;;
46216;SDS011;47258;59.424;13.482;2023-02-28T00:27:33;2.72;;;1.52;;
46216;SDS011;47258;59.424;13.482;2023-02-28T00:30:02;4.80;;;2.17;;
46216;SDS011;47258;59.424;13.482;2023-02-28T00:32:31;4.93;;;1.70;;
46216;SDS011;47258;59.424;13.482;2023-02-28T00:34:59;6.75;;;2.10;;
46216;SDS011;47258;59.424;13.482;2023-02-28T00:37:27;4.78;;;2.63;;
46216;SDS011;47258;59.424;13.482;2023-02-28T00:39:54;1.80;;;1.17;;
46216;SDS011;47258;59.424;13.482;2023-02-28T00:42:21;1.42;;;1.17;;
46216;SDS011;47258;59.424;13.482;2023-02-28T00:44:50;6.35;;;1.50;;
46216;SDS011;47258;59.424;13.482;2023-02-28T00:47:17;1.42;;;1.23;;
46216;SDS011;47258;59.424;13.482;2023-02-28T00:49:44;0.95;;;0.93;;
46216;SDS011;47258;59.424;13.482;2023-02-28T00:52:11;1.83;;;1.30;;
46216;SDS011;47258;59.424;13.482;2023-02-28T00:54:38;2.20;;;1.67;;
46216;SDS011;47258;59.424;13.482;2023-02-28T00:57:05;4.15;;;1.67;;
46216;SDS011;47258;59.424;13.482;2023-02-28T00:59:32;3.17;;;2.10;;
46216;SDS011;47258;59.424;13.482;2023-02-28T01:02:01;4.15;;;2.60;;
46216;SDS011;47258;59.424;13.482;2023-02-28T01:04:28;3.30;;;1.85;;
46216;SDS011;47258;59.424;13.482;2023-02-28T01:06:55;5.97;;;1.95;;
46216;SDS011;47258;59.424;13.482;2023-02-28T01:09:22;2.35;;;1.67;;
46216;SDS011;47258;59.424;13.482;2023-02-28T01:11:49;4.68;;;2.40;;
46216;SDS011;47258;59.424;13.482;2023-02-28T01:14:16;2.38;;;2.03;;
46216;SDS011;47258;59.424;13.482;2023-02-28T01:16:44;2.53;;;1.63;;
46216;SDS011;47258;59.424;13.482;2023-02-28T01:19:13;5.20;;;2.92;;
46216;SDS011;47258;59.424;13.482;2023-02-28T01:21:40;2.47;;;2.28;;
46216;SDS011;47258;59.424;13.482;2023-02-28T01:24:07;11.35;;;2.13;;
46216;SDS011;47258;59.424;13.482;2023-02-28T01:26:34;2.20;;;1.50;;
46216;SDS011;47258;59.424;13.482;2023-02-28T01:29:02;1.88;;;1.38;;
46216;SDS011;47258;59.424;13.482;2023-02-28T01:31:29;1.88;;;1.33;;
46216;SDS011;47258;59.424;13.482;2023-02-28T01:33:56;2.17;;;1.45;;
46216;SDS011;47258;59.424;13.482;2023-02-28T01:36:25;2.13;;;1.88;;
46216;SDS011;47258;59.424;13.482;2023-02-28T01:38:52;1.75;;;1.15;;
46216;SDS011;47258;59.424;13.482;2023-02-28T01:41:20;2.63;;;1.63;;
46216;SDS011;47258;59.424;13.482;2023-02-28T01:43:53;7.80;;;2.25;;
46216;SDS011;47258;59.424;13.482;2023-02-28T01:46:28;3.20;;;1.70;;
46216;SDS011;47258;59.424;13.482;2023-02-28T01:48:57;1.13;;;1.02;;
46216;SDS011;47258;59.424;13.482;2023-02-28T01:51:31;2.35;;;1.42;;
46216;SDS011;47258;59.424;13.482;2023-02-28T01:54:03;2.60;;;1.05;;
46216;SDS011;47258;59.424;13.482;2023-02-28T01:56:38;2.40;;;1.30;;
46216;SDS011;47258;59.424;13.482;2023-02-28T01:59:11;1.88;;;1.10;;
46216;SDS011;47258;59.424;13.482;2023-02-28T02:01:41;2.58;;;1.10;;
46216;SDS011;47258;59.424;13.482;2023-02-28T02:04:08;1.98;;;1.00;;
46216;SDS011;47258;59.424;13.482;2023-02-28T02:06:38;2.28;;;1.25;;
46216;SDS011;47258;59.424;13.482;2023-02-28T02:09:08;1.40;;;0.80;;
46216;SDS011;47258;59.424;13.482;2023-02-28T02:11:35;1.80;;;1.30;;
46216;SDS011;47258;59.424;13.482;2023-02-28T02:14:12;1.38;;;1.02;;
46216;SDS011;47258;59.424;13.482;2023-02-28T02:17:05;0.68;;;0.68;;
46216;SDS011;47258;59.424;13.482;2023-02-28T02:19:53;0.65;;;0.65;;
46216;SDS011;47258;59.424;13.482;2023-02-28T02:25:48;1.23;;;0.80;;
46216;SDS011;47258;59.424;13.482;2023-02-28T02:28:37;1.50;;;1.00;;
46216;SDS011;47258;59.424;13.482;2023-02-28T02:31:41;2.58;;;0.80;;
46216;SDS011;47258;59.424;13.482;2023-02-28T02:34:49;0.50;;;0.50;;
46216;SDS011;47258;59.424;13.482;2023-02-28T02:37:25;0.50;;;0.40;;
46216;SDS011;47258;59.424;13.482;2023-02-28T02:39:59;1.85;;;0.95;;
46216;SDS011;47258;59.424;13.482;2023-02-28T02:42:35;1.13;;;0.85;;
46216;SDS011;47258;59.424;13.482;2023-02-28T02:45:08;0.60;;;0.60;;
46216;SDS011;47258;59.424;13.482;2023-02-28T02:47:38;0.55;;;0.55;;
46216;SDS011;47258;59.424;13.482;2023-02-28T02:50:11;0.55;;;0.55;;
46216;SDS011;47258;59.424;13.482;2023-02-28T02:52:44;0.80;;;0.75;;
46216;SDS011;47258;59.424;13.482;2023-02-28T02:55:14;0.82;;;0.82;;
46216;SDS011;47258;59.424;13.482;2023-02-28T02:57:45;0.65;;;0.63;;
46216;SDS011;47258;59.424;13.482;2023-02-28T03:00:16;1.48;;;1.15;;
46216;SDS011;47258;59.424;13.482;2023-02-28T03:02:46;0.80;;;0.80;;
46216;SDS011;47258;59.424;13.482;2023-02-28T03:05:17;1.55;;;1.10;;
46216;SDS011;47258;59.424;13.482;2023-02-28T03:07:48;1.38;;;1.27;;
46216;SDS011;47258;59.424;13.482;2023-02-28T03:10:32;0.70;;;0.70;;
46216;SDS011;47258;59.424;13.482;2023-02-28T03:13:11;1.88;;;0.98;;
46216;SDS011;47258;59.424;13.482;2023-02-28T03:15:50;3.53;;;0.88;;
46216;SDS011;47258;59.424;13.482;2023-02-28T03:18:26;0.77;;;0.77;;
46216;SDS011;47258;59.424;13.482;2023-02-28T03:21:03;0.65;;;0.65;;
46216;SDS011;47258;59.424;13.482;2023-02-28T03:23:36;0.70;;;0.70;;
46216;SDS011;47258;59.424;13.482;2023-02-28T03:26:12;0.98;;;0.90;;
46216;SDS011;47258;59.424;13.482;2023-02-28T03:28:51;1.85;;;1.15;;
46216;SDS011;47258;59.424;13.482;2023-02-28T03:31:27;1.00;;;0.88;;
46216;SDS011;47258;59.424;13.482;2023-02-28T03:33:59;1.50;;;0.98;;
46216;SDS011;47258;59.424;13.482;2023-02-28T03:36:35;0.93;;;0.90;;
46216;SDS011;47258;59.424;13.482;2023-02-28T03:39:09;1.10;;;0.70;;
46216;SDS011;47258;59.424;13.482;2023-02-28T03:41:41;6.57;;;2.85;;
46216;SDS011;47258;59.424;13.482;2023-02-28T03:44:14;0.60;;;0.60;;
46216;SDS011;47258;59.424;13.482;2023-02-28T03:46:46;1.77;;;0.93;;
46216;SDS011;47258;59.424;13.482;2023-02-28T03:49:20;1.20;;;1.10;;
46216;SDS011;47258;59.424;13.482;2023-02-28T03:51:52;1.77;;;1.15;;
46216;SDS011;47258;59.424;13.482;2023-02-28T03:54:22;2.72;;;1.00;;
46216;SDS011;47258;59.424;13.482;2023-02-28T03:56:54;4.78;;;1.13;;
46216;SDS011;47258;59.424;13.482;2023-02-28T03:59:27;3.22;;;1.05;;
46216;SDS011;47258;59.424;13.482;2023-02-28T04:01:59;2.03;;;1.50;;
46216;SDS011;47258;59.424;13.482;2023-02-28T04:04:26;1.63;;;1.52;;
46216;SDS011;47258;59.424;13.482;2023-02-28T04:07:00;1.70;;;1.10;;
46216;SDS011;47258;59.424;13.482;2023-02-28T04:09:28;2.47;;;1.00;;
46216;SDS011;47258;59.424;13.482;2023-02-28T04:11:56;3.67;;;1.02;;
46216;SDS011;47258;59.424;13.482;2023-02-28T04:14:23;3.05;;;1.10;;
46216;SDS011;47258;59.424;13.482;2023-02-28T04:16:50;1.20;;;0.98;;
46216;SDS011;47258;59.424;13.482;2023-02-28T04:19:17;1.20;;;0.90;;
46216;SDS011;47258;59.424;13.482;2023-02-28T04:21:45;3.15;;;1.10;;
46216;SDS011;47258;59.424;13.482;2023-02-28T04:24:15;1.70;;;1.00;;
46216;SDS011;47258;59.424;13.482;2023-02-28T04:26:44;1.63;;;1.00;;
46216;SDS011;47258;59.424;13.482;2023-02-28T04:29:13;0.80;;;0.80;;
46216;SDS011;47258;59.424;13.482;2023-02-28T04:31:45;0.95;;;0.93;;
46216;SDS011;47258;59.424;13.482;2023-02-28T04:34:12;1.55;;;0.95;;
46216;SDS011;47258;59.424;13.482;2023-02-28T04:36:39;2.40;;;1.08;;
46216;SDS011;47258;59.424;13.482;2023-02-28T04:39:07;2.92;;;1.75;;
46216;SDS011;47258;59.424;13.482;2023-02-28T04:41:36;1.17;;;1.05;;
46216;SDS011;47258;59.424;13.482;2023-02-28T04:44:04;0.98;;;0.98;;
46216;SDS011;47258;59.424;13.482;2023-02-28T04:46:31;0.60;;;0.60;;
46216;SDS011;47258;59.424;13.482;2023-02-28T04:48:58;0.85;;;0.85;;
46216;SDS011;47258;59.424;13.482;2023-02-28T04:51:25;2.08;;;1.05;;
46216;SDS011;47258;59.424;13.482;2023-02-28T04:53:52;0.90;;;0.90;;
46216;SDS011;47258;59.424;13.482;2023-02-28T04:56:19;1.45;;;0.98;;
46216;SDS011;47258;59.424;13.482;2023-02-28T04:58:48;1.70;;;1.05;;
46216;SDS011;47258;59.424;13.482;2023-02-28T05:01:19;2.03;;;1.20;;
46216;SDS011;47258;59.424;13.482;2023-02-28T05:03:47;2.05;;;1.00;;
46216;SDS011;47258;59.424;13.482;2023-02-28T05:06:16;1.35;;;0.93;;
46216;SDS011;47258;59.424;13.482;2023-02-28T05:08:43;0.75;;;0.75;;
46216;SDS011;47258;59.424;13.482;2023-02-28T05:11:16;1.33;;;1.00;;
46216;SDS011;47258;59.424;13.482;2023-02-28T05:13:44;1.38;;;1.08;;
46216;SDS011;47258;59.424;13.482;2023-02-28T05:16:13;1.80;;;1.50;;
46216;SDS011;47258;59.424;13.482;2023-02-28T05:18:40;1.10;;;0.93;;
46216;SDS011;47258;59.424;13.482;2023-02-28T05:21:14;0.88;;;0.80;;
46216;SDS011;47258;59.424;13.482;2023-02-28T05:23:51;2.13;;;1.00;;
46216;SDS011;47258;59.424;13.482;2023-02-28T05:26:18;1.85;;;1.45;;
46216;SDS011;47258;59.424;13.482;2023-02-28T05:28:45;1.17;;;0.90;;
46216;SDS011;47258;59.424;13.482;2023-02-28T05:31:14;1.98;;;1.50;;
46216;SDS011;47258;59.424;13.482;2023-02-28T05:33:41;0.97;;;0.97;;
46216;SDS011;47258;59.424;13.482;2023-02-28T05:36:08;2.33;;;1.75;;
46216;SDS011;47258;59.424;13.482;2023-02-28T05:38:36;1.58;;;1.20;;
46216;SDS011;47258;59.424;13.482;2023-02-28T05:41:04;3.55;;;1.33;;
46216;SDS011;47258;59.424;13.482;2023-02-28T05:43:33;1.52;;;1.15;;
46216;SDS011;47258;59.424;13.482;2023-02-28T05:46:02;1.93;;;1.73;;
46216;SDS011;47258;59.424;13.482;2023-02-28T05:48:31;1.83;;;1.60;;
46216;SDS011;47258;59.424;13.482;2023-02-28T05:50:59;1.20;;;1.10;;
46216;SDS011;47258;59.424;13.482;2023-02-28T05:53:27;3.25;;;2.35;;
46216;SDS011;47258;59.424;13.482;2023-02-28T05:55:55;2.72;;;1.02;;
46216;SDS011;47258;59.424;13.482;2023-02-28T05:58:22;1.40;;;1.17;;
46216;SDS011;47258;59.424;13.482;2023-02-28T06:00:50;2.70;;;2.25;;
46216;SDS011;47258;59.424;13.482;2023-02-28T06:03:17;2.70;;;1.33;;
46216;SDS011;47258;59.424;13.482;2023-02-28T06:05:46;1.00;;;1.00;;
46216;SDS011;47258;59.424;13.482;2023-02-28T06:08:13;5.78;;;2.08;;
46216;SDS011;47258;59.424;13.482;2023-02-28T06:10:40;1.00;;;1.00;;
46216;SDS011;47258;59.424;13.482;2023-02-28T06:13:07;2.33;;;1.10;;
46216;SDS011;47258;59.424;13.482;2023-02-28T06:15:34;3.75;;;0.82;;
46216;SDS011;47258;59.424;13.482;2023-02-28T06:18:01;2.35;;;1.10;;
46216;SDS011;47258;59.424;13.482;2023-02-28T06:20:28;0.90;;;0.90;;
46216;SDS011;47258;59.424;13.482;2023-02-28T06:22:57;2.17;;;1.20;;
46216;SDS011;47258;59.424;13.482;2023-02-28T06:25:24;2.92;;;1.40;;
46216;SDS011;47258;59.424;13.482;2023-02-28T06:27:52;3.53;;;1.33;;
46216;SDS011;47258;59.424;13.482;2023-02-28T06:30:20;2.13;;;1.25;;
46216;SDS011;47258;59.424;13.482;2023-02-28T06:32:50;3.83;;;1.55;;
46216;SDS011;47258;59.424;13.482;2023-02-28T06:35:18;7.03;;;3.85;;
46216;SDS011;47258;59.424;13.482;2023-02-28T06:37:45;4.20;;;1.52;;
46216;SDS011;47258;59.424;13.482;2023-02-28T06:40:14;1.90;;;1.80;;
46216;SDS011;47258;59.424;13.482;2023-02-28T06:42:41;3.97;;;1.35;;
46216;SDS011;47258;59.424;13.482;2023-02-28T06:45:09;2.53;;;1.63;;
46216;SDS011;47258;59.424;13.482;2023-02-28T06:47:37;3.10;;;1.13;;
46216;SDS011;47258;59.424;13.482;2023-02-28T06:50:05;3.55;;;2.05;;
46216;SDS011;47258;59.424;13.482;2023-02-28T06:52:34;1.48;;;1.23;;
46216;SDS011;47258;59.424;13.482;2023-02-28T06:55:02;2.97;;;1.70;;
46216;SDS011;47258;59.424;13.482;2023-02-28T06:57:32;4.53;;;1.73;;
46216;SDS011;47258;59.424;13.482;2023-02-28T06:59:59;7.13;;;2.10;;
46216;SDS011;47258;59.424;13.482;2023-02-28T07:02:32;1.98;;;1.33;;
46216;SDS011;47258;59.424;13.482;2023-02-28T07:04:59;3.70;;;2.08;;
46216;SDS011;47258;59.424;13.482;2023-02-28T07:07:26;1.38;;;1.23;;
46216;SDS011;47258;59.424;13.482;2023-02-28T07:09:53;1.88;;;1.67;;
46216;SDS011;47258;59.424;13.482;2023-02-28T07:12:21;3.05;;;2.10;;
46216;SDS011;47258;59.424;13.482;2023-02-28T07:14:50;2.50;;;1.70;;
46216;SDS011;47258;59.424;13.482;2023-02-28T07:17:17;1.70;;;1.33;;
46216;SDS011;47258;59.424;13.482;2023-02-28T07:19:44;2.05;;;1.70;;
46216;SDS011;47258;59.424;13.482;2023-02-28T07:22:11;1.45;;;1.33;;
46216;SDS011;47258;59.424;13.482;2023-02-28T07:24:38;2.05;;;1.33;;
46216;SDS011;47258;59.424;13.482;2023-02-28T07:27:05;2.10;;;1.35;;
46216;SDS011;47258;59.424;13.482;2023-02-28T07:29:32;6.22;;;1.15;;
46216;SDS011;47258;59.424;13.482;2023-02-28T07:32:00;1.63;;;1.52;;
46216;SDS011;47258;59.424;13.482;2023-02-28T07:34:27;5.30;;;1.17;;
46216;SDS011;47258;59.424;13.482;2023-02-28T07:36:55;2.33;;;1.27;;
46216;SDS011;47258;59.424;13.482;2023-02-28T07:39:22;1.58;;;1.00;;
46216;SDS011;47258;59.424;13.482;2023-02-28T07:41:49;1.52;;;1.33;;
46216;SDS011;47258;59.424;13.482;2023-02-28T07:44:16;2.40;;;1.70;;
46216;SDS011;47258;59.424;13.482;2023-02-28T07:46:43;2.58;;;1.45;;
46216;SDS011;47258;59.424;13.482;2023-02-28T07:49:11;9.05;;;1.38;;
46216;SDS011;47258;59.424;13.482;2023-02-28T07:51:38;1.38;;;1.25;;
46216;SDS011;47258;59.424;13.482;2023-02-28T07:54:05;2.50;;;1.65;;
46216;SDS011;47258;59.424;13.482;2023-02-28T07:56:33;3.65;;;1.42;;
46216;SDS011;47258;59.424;13.482;2023-02-28T07:59:00;1.05;;;0.88;;
46216;SDS011;47258;59.424;13.482;2023-02-28T08:01:27;7.97;;;1.63;;
46216;SDS011;47258;59.424;13.482;2023-02-28T08:03:54;2.33;;;1.75;;
46216;SDS011;47258;59.424;13.482;2023-02-28T08:06:24;1.70;;;1.60;;
46216;SDS011;47258;59.424;13.482;2023-02-28T08:08:52;0.90;;;0.88;;
46216;SDS011;47258;59.424;13.482;2023-02-28T08:13:47;1.65;;;1.08;;
46216;SDS011;47258;59.424;13.482;2023-02-28T08:16:15;0.95;;;0.80;;
46216;SDS011;47258;59.424;13.482;2023-02-28T08:18:46;2.80;;;1.23;;
46216;SDS011;47258;59.424;13.482;2023-02-28T08:21:14;0.75;;;0.70;;
46216;SDS011;47258;59.424;13.482;2023-02-28T08:23:42;2.78;;;1.20;;
46216;SDS011;47258;59.424;13.482;2023-02-28T08:26:09;1.55;;;0.95;;
46216;SDS011;47258;59.424;13.482;2023-02-28T08:28:36;0.77;;;0.68;;
46216;SDS011;47258;59.424;13.482;2023-02-28T08:31:06;1.00;;;0.90;;
46216;SDS011;47258;59.424;13.482;2023-02-28T08:33:34;1.65;;;0.90;;
46216;SDS011;47258;59.424;13.482;2023-02-28T08:36:02;1.33;;;0.70;;
46216;SDS011;47258;59.424;13.482;2023-02-28T08:38:29;0.70;;;0.70;;
46216;SDS011;47258;59.424;13.482;2023-02-28T08:40:58;2.00;;;0.88;;
46216;SDS011;47258;59.424;13.482;2023-02-28T08:45:53;2.50;;;1.13;;
46216;SDS011;47258;59.424;13.482;2023-02-28T08:48:21;1.48;;;0.63;;
46216;SDS011;47258;59.424;13.482;2023-02-28T08:50:54;0.88;;;0.88;;
46216;SDS011;47258;59.424;13.482;2023-02-28T08:53:22;1.10;;;0.80;;
46216;SDS011;47258;59.424;13.482;2023-02-28T08:55:55;0.85;;;0.80;;
46216;SDS011;47258;59.424;13.482;2023-02-28T08:58:24;2.45;;;0.63;;
46216;SDS011;47258;59.424;13.482;2023-02-28T09:00:51;2.53;;;0.82;;
46216;SDS011;47258;59.424;13.482;2023-02-28T09:03:19;3.70;;;1.42;;
46216;SDS011;47258;59.424;13.482;2023-02-28T09:05:53;0.70;;;0.70;;
46216;SDS011;47258;59.424;13.482;2023-02-28T09:08:22;0.73;;;0.73;;
46216;SDS011;47258;59.424;13.482;2023-02-28T09:10:49;0.85;;;0.85;;
46216;SDS011;47258;59.424;13.482;2023-02-28T09:13:17;1.05;;;0.85;;
46216;SDS011;47258;59.424;13.482;2023-02-28T09:15:45;2.17;;;0.85;;
46216;SDS011;47258;59.424;13.482;2023-02-28T09:18:13;1.08;;;0.90;;
46216;SDS011;47258;59.424;13.482;2023-02-28T09:20:41;0.55;;;0.55;;
46216;SDS011;47258;59.424;13.482;2023-02-28T09:23:09;0.70;;;0.70;;
46216;SDS011;47258;59.424;13.482;2023-02-28T09:25:37;0.57;;;0.57;;
46216;SDS011;47258;59.424;13.482;2023-02-28T09:28:10;0.75;;;0.63;;
46216;SDS011;47258;59.424;13.482;2023-02-28T09:30:37;1.25;;;0.73;;
46216;SDS011;47258;59.424;13.482;2023-02-28T09:33:06;1.42;;;1.05;;
46216;SDS011;47258;59.424;13.482;2023-02-28T09:35:33;0.63;;;0.63;;
46216;SDS011;47258;59.424;13.482;2023-02-28T09:38:02;0.77;;;0.50;;
46216;SDS011;47258;59.424;13.482;2023-02-28T09:40:29;0.55;;;0.50;;
46216;SDS011;47258;59.424;13.482;2023-02-28T09:42:57;1.27;;;0.75;;
46216;SDS011;47258;59.424;13.482;2023-02-28T09:45:27;1.15;;;0.85;;
46216;SDS011;47258;59.424;13.482;2023-02-28T09:47:58;0.73;;;0.70;;
46216;SDS011;47258;59.424;13.482;2023-02-28T09:50:32;1.23;;;0.50;;
46216;SDS011;47258;59.424;13.482;2023-02-28T09:53:02;1.40;;;0.40;;
46216;SDS011;47258;59.424;13.482;2023-02-28T09:55:41;0.70;;;0.70;;
46216;SDS011;47258;59.424;13.482;2023-02-28T09:58:12;0.70;;;0.70;;
46216;SDS011;47258;59.424;13.482;2023-02-28T10:00:44;1.77;;;0.82;;
46216;SDS011;47258;59.424;13.482;2023-02-28T10:03:30;0.80;;;0.40;;
46216;SDS011;47258;59.424;13.482;2023-02-28T10:06:05;1.50;;;0.60;;
46216;SDS011;47258;59.424;13.482;2023-02-28T10:08:40;1.10;;;1.10;;
46216;SDS011;47258;59.424;13.482;2023-02-28T10:11:13;0.82;;;0.82;;
46216;SDS011;47258;59.424;13.482;2023-02-28T10:13:46;1.85;;;0.73;;
46216;SDS011;47258;59.424;13.482;2023-02-28T10:16:21;0.55;;;0.52;;
46216;SDS011;47258;59.424;13.482;2023-02-28T10:18:52;0.70;;;0.70;;
46216;SDS011;47258;59.424;13.482;2023-02-28T10:21:24;0.73;;;0.73;;
46216;SDS011;47258;59.424;13.482;2023-02-28T10:23:57;1.02;;;0.90;;
46216;SDS011;47258;59.424;13.482;2023-02-28T10:26:29;0.80;;;0.80;;
46216;SDS011;47258;59.424;13.482;2023-02-28T10:28:59;0.65;;;0.65;;
46216;SDS011;47258;59.424;13.482;2023-02-28T10:31:27;0.60;;;0.57;;
46216;SDS011;47258;59.424;13.482;2023-02-28T10:33:55;0.47;;;0.47;;
46216;SDS011;47258;59.424;13.482;2023-02-28T10:36:23;0.65;;;0.60;;
46216;SDS011;47258;59.424;13.482;2023-02-28T10:38:50;0.30;;;0.30;;
46216;SDS011;47258;59.424;13.482;2023-02-28T10:41:26;0.40;;;0.40;;
46216;SDS011;47258;59.424;13.482;2023-02-28T10:49:06;0.50;;;0.50;;
46216;SDS011;47258;59.424;13.482;2023-02-28T10:51:42;0.60;;;0.60;;
46216;SDS011;47258;59.424;13.482;2023-02-28T10:54:15;0.30;;;0.30;;
46216;SDS011;47258;59.424;13.482;2023-02-28T10:56:44;0.30;;;0.30;;
46216;SDS011;47258;59.424;13.482;2023-02-28T10:59:28;0.75;;;0.75;;
46216;SDS011;47258;59.424;13.482;2023-02-28T11:01:56;1.48;;;1.15;;
46216;SDS011;47258;59.424;13.482;2023-02-28T11:04:33;3.95;;;1.50;;
46216;SDS011;47258;59.424;13.482;2023-02-28T11:07:06;1.23;;;0.90;;
46216;SDS011;47258;59.424;13.482;2023-02-28T11:12:19;1.02;;;1.02;;
46216;SDS011;47258;59.424;13.482;2023-02-28T11:14:48;1.75;;;0.80;;
46216;SDS011;47258;59.424;13.482;2023-02-28T11:17:19;1.63;;;1.02;;
46216;SDS011;47258;59.424;13.482;2023-02-28T11:19:49;2.95;;;1.83;;
46216;SDS011;47258;59.424;13.482;2023-02-28T11:22:21;6.15;;;4.38;;
46216;SDS011;47258;59.424;13.482;2023-02-28T11:24:54;5.47;;;3.35;;
46216;SDS011;47258;59.424;13.482;2023-02-28T11:27:24;2.53;;;1.98;;
46216;SDS011;47258;59.424;13.482;2023-02-28T11:30:14;2.65;;;1.92;;
46216;SDS011;47258;59.424;13.482;2023-02-28T11:32:53;1.20;;;1.10;;
46216;SDS011;47258;59.424;13.482;2023-02-28T11:35:21;1.90;;;1.02;;
46216;SDS011;47258;59.424;13.482;2023-02-28T11:37:53;1.58;;;1.35;;
46216;SDS011;47258;59.424;13.482;2023-02-28T11:40:22;1.88;;;0.90;;
46216;SDS011;47258;59.424;13.482;2023-02-28T11:43:00;1.30;;;1.20;;
46216;SDS011;47258;59.424;13.482;2023-02-28T11:45:45;0.65;;;0.65;;
46216;SDS011;47258;59.424;13.482;2023-02-28T11:48:22;1.70;;;1.00;;
46216;SDS011;47258;59.424;13.482;2023-02-28T11:50:57;2.10;;;1.45;;
46216;SDS011;47258;59.424;13.482;2023-02-28T11:53:43;1.35;;;0.70;;
46216;SDS011;47258;59.424;13.482;2023-02-28T11:56:29;2.50;;;0.73;;
46216;SDS011;47258;59.424;13.482;2023-02-28T11:59:02;0.40;;;0.40;;
46216;SDS011;47258;59.424;13.482;2023-02-28T12:01:41;0.43;;;0.43;;
46216;SDS011;47258;59.424;13.482;2023-02-28T12:04:25;0.65;;;0.47;;
46216;SDS011;47258;59.424;13.482;2023-02-28T12:07:00;1.15;;;0.50;;
46216;SDS011;47258;59.424;13.482;2023-02-28T12:09:42;0.35;;;0.35;;
46216;SDS011;47258;59.424;13.482;2023-02-28T12:12:21;0.20;;;0.20;;
46216;SDS011;47258;59.424;13.482;2023-02-28T12:15:02;0.65;;;0.40;;
46216;SDS011;47258;59.424;13.482;2023-02-28T12:17:52;0.30;;;0.30;;
46216;SDS011;47258;59.424;13.482;2023-02-28T12:20:31;2.63;;;0.30;;
46216;SDS011;47258;59.424;13.482;2023-02-28T12:23:10;1.67;;;0.47;;
46216;SDS011;47258;59.424;13.482;2023-02-28T12:26:12;0.43;;;0.40;;
46216;SDS011;47258;59.424;13.482;2023-02-28T12:28:45;0.30;;;0.30;;
46216;SDS011;47258;59.424;13.482;2023-02-28T12:31:18;4.85;;;0.93;;
46216;SDS011;47258;59.424;13.482;2023-02-28T12:33:50;0.75;;;0.30;;
46216;SDS011;47258;59.424;13.482;2023-02-28T12:36:20;0.77;;;0.20;;
46216;SDS011;47258;59.424;13.482;2023-02-28T12:38:50;1.37;;;0.57;;
46216;SDS011;47258;59.424;13.482;2023-02-28T12:41:22;2.53;;;1.20;;
46216;SDS011;47258;59.424;13.482;2023-02-28T12:43:55;2.53;;;0.38;;
46216;SDS011;47258;59.424;13.482;2023-02-28T12:46:28;0.52;;;0.22;;
46216;SDS011;47258;59.424;13.482;2023-02-28T12:49:00;0.55;;;0.30;;
46216;SDS011;47258;59.424;13.482;2023-02-28T12:51:32;2.55;;;0.73;;
46216;SDS011;47258;59.424;13.482;2023-02-28T12:54:04;1.00;;;0.90;;
46216;SDS011;47258;59.424;13.482;2023-02-28T12:56:42;0.85;;;0.30;;
46216;SDS011;47258;59.424;13.482;2023-02-28T12:59:17;2.28;;;0.40;;
46216;SDS011;47258;59.424;13.482;2023-02-28T13:04:54;0.95;;;0.40;;
46216;SDS011;47258;59.424;13.482;2023-02-28T13:07:46;0.32;;;0.32;;
46216;SDS011;47258;59.424;13.482;2023-02-28T13:10:24;0.80;;;0.40;;
46216;SDS011;47258;59.424;13.482;2023-02-28T13:13:05;0.30;;;0.30;;
46216;SDS011;47258;59.424;13.482;2023-02-28T13:15:32;0.93;;;0.40;;
46216;SDS011;47258;59.424;13.482;2023-02-28T13:18:20;0.90;;;0.40;;
46216;SDS011;47258;59.424;13.482;2023-02-28T13:20:54;1.15;;;0.30;;
46216;SDS011;47258;59.424;13.482;2023-02-28T13:23:38;0.15;;;0.15;;
46216;SDS011;47258;59.424;13.482;2023-02-28T13:26:23;0.25;;;0.25;;
46216;SDS011;47258;59.424;13.482;2023-02-28T13:29:24;0.10;;;0.10;;
46216;SDS011;47258;59.424;13.482;2023-02-28T13:35:14;0.10;;;0.10;;
46216;SDS011;47258;59.424;13.482;2023-02-28T13:44:11;3.03;;;0.65;;
46216;SDS011;47258;59.424;13.482;2023-02-28T13:49:45;1.98;;;0.43;;
46216;SDS011;47258;59.424;13.482;2023-02-28T13:52:12;4.75;;;0.45;;
46216;SDS011;47258;59.424;13.482;2023-02-28T13:57:43;0.30;;;0.30;;
46216;SDS011;47258;59.424;13.482;2023-02-28T14:00:25;0.77;;;0.68;;
46216;SDS011;47258;59.424;13.482;2023-02-28T14:03:12;1.38;;;0.43;;
46216;SDS011;47258;59.424;13.482;2023-02-28T14:06:16;4.43;;;0.47;;
46216;SDS011;47258;59.424;13.482;2023-02-28T14:08:50;2.45;;;0.30;;
46216;SDS011;47258;59.424;13.482;2023-02-28T14:11:26;0.85;;;0.40;;
46216;SDS011;47258;59.424;13.482;2023-02-28T14:13:58;1.65;;;0.50;;
46216;SDS011;47258;59.424;13.482;2023-02-28T14:16:27;3.50;;;0.90;;
46216;SDS011;47258;59.424;13.482;2023-02-28T14:19:04;0.52;;;0.40;;
46216;SDS011;47258;59.424;13.482;2023-02-28T14:21:38;1.92;;;0.30;;
46216;SDS011;47258;59.424;13.482;2023-02-28T14:24:21;0.68;;;0.40;;
46216;SDS011;47258;59.424;13.482;2023-02-28T14:27:15;1.20;;;0.38;;
46216;SDS011;47258;59.424;13.482;2023-02-28T14:32:41;4.40;;;0.60;;
46216;SDS011;47258;59.424;13.482;2023-02-28T14:35:17;2.63;;;0.60;;
46216;SDS011;47258;59.424;13.482;2023-02-28T14:37:54;0.93;;;0.40;;
46216;SDS011;47258;59.424;13.482;2023-02-28T14:40:22;5.38;;;0.93;;
46216;SDS011;47258;59.424;13.482;2023-02-28T14:42:55;6.40;;;1.17;;
46216;SDS011;47258;59.424;13.482;2023-02-28T14:45:23;7.65;;;1.05;;
46216;SDS011;47258;59.424;13.482;2023-02-28T14:47:50;12.25;;;1.50;;
46216;SDS011;47258;59.424;13.482;2023-02-28T14:50:18;1.35;;;1.15;;
46216;SDS011;47258;59.424;13.482;2023-02-28T14:52:47;3.47;;;1.27;;
46216;SDS011;47258;59.424;13.482;2023-02-28T14:55:19;8.77;;;3.38;;
46216;SDS011;47258;59.424;13.482;2023-02-28T14:57:53;5.32;;;1.17;;
46216;SDS011;47258;59.424;13.482;2023-02-28T15:00:22;3.92;;;1.33;;
46216;SDS011;47258;59.424;13.482;2023-02-28T15:02:51;2.80;;;1.17;;
46216;SDS011;47258;59.424;13.482;2023-02-28T15:05:21;5.78;;;1.80;;
46216;SDS011;47258;59.424;13.482;2023-02-28T15:08:00;2.63;;;0.75;;
46216;SDS011;47258;59.424;13.482;2023-02-28T15:10:31;2.70;;;1.27;;
46216;SDS011;47258;59.424;13.482;2023-02-28T15:13:00;1.40;;;0.90;;
46216;SDS011;47258;59.424;13.482;2023-02-28T15:18:01;0.90;;;0.70;;
46216;SDS011;47258;59.424;13.482;2023-02-28T15:20:31;2.45;;;1.10;;
46216;SDS011;47258;59.424;13.482;2023-02-28T15:22:59;1.05;;;0.95;;
46216;SDS011;47258;59.424;13.482;2023-02-28T15:25:27;9.02;;;1.20;;
46216;SDS011;47258;59.424;13.482;2023-02-28T15:27:56;1.40;;;0.80;;
46216;SDS011;47258;59.424;13.482;2023-02-28T15:30:24;4.03;;;1.27;;
46216;SDS011;47258;59.424;13.482;2023-02-28T15:33:03;3.38;;;1.23;;
46216;SDS011;47258;59.424;13.482;2023-02-28T15:35:33;4.65;;;1.10;;
46216;SDS011;47258;59.424;13.482;2023-02-28T15:38:02;5.53;;;1.08;;